createdAt,value
2022-12-06T00:01:29.932Z,4.94
2022-12-06T00:03:58.963Z,4.92
2022-12-06T00:06:28.878Z,4.94
2022-12-06T00:08:57.241Z,4.85
2022-12-06T00:11:27.790Z,4.82
2022-12-06T00:13:58.718Z,4.80
2022-12-06T00:16:26.466Z,4.79
2022-12-06T00:18:53.525Z,4.86
2022-12-06T00:21:24.036Z,4.82
2022-12-06T00:23:54.891Z,4.83
2022-12-06T00:26:22.444Z,4.82
2022-12-06T00:28:52.745Z,4.93
2022-12-06T00:31:21.153Z,4.82
2022-12-06T00:33:48.142Z,4.87
2022-12-06T00:36:21.290Z,4.90
2022-12-06T00:38:48.989Z,4.83
2022-12-06T00:41:21.094Z,4.79
2022-12-06T00:43:48.279Z,4.75
2022-12-06T00:46:18.346Z,4.81
2022-12-06T00:48:46.271Z,4.82
2022-12-06T00:51:14.743Z,4.80
2022-12-06T00:53:42.103Z,4.75
2022-12-06T00:56:09.026Z,4.65
2022-12-06T00:58:35.599Z,4.65
2022-12-06T01:01:13.321Z,4.59
2022-12-06T01:03:40.854Z,4.68
2022-12-06T01:06:10.752Z,4.55
2022-12-06T01:08:38.844Z,4.61
2022-12-06T01:11:06.479Z,4.60
2022-12-06T01:13:33.835Z,4.62
2022-12-06T01:16:16.836Z,4.52
2022-12-06T01:18:44.623Z,4.49
2022-12-06T01:21:15.447Z,4.55
2022-12-06T01:23:43.240Z,4.52
2022-12-06T01:26:16.949Z,4.44
2022-12-06T01:28:44.215Z,4.48
2022-12-06T01:31:11.087Z,4.45
2022-12-06T01:33:37.692Z,4.42
2022-12-06T01:36:04.744Z,4.42
2022-12-06T01:38:31.710Z,4.41
2022-12-06T01:40:58.635Z,4.46
2022-12-06T01:43:37.845Z,4.45
2022-12-06T01:46:30.282Z,4.39
2022-12-06T01:49:19.036Z,4.41
2022-12-06T01:52:01.595Z,4.31
2022-12-06T01:54:29.696Z,4.35
2022-12-06T01:56:57.945Z,4.28
2022-12-06T01:59:26.376Z,4.26
2022-12-06T02:01:53.781Z,4.25
2022-12-06T02:04:22.196Z,4.18
2022-12-06T02:06:50.320Z,4.23
2022-12-06T02:09:17.651Z,4.19
2022-12-06T02:11:44.684Z,4.18
2022-12-06T02:14:15.395Z,4.21
2022-12-06T02:17:12.667Z,4.22
2022-12-06T02:19:58.156Z,4.26
2022-12-06T02:22:36.802Z,4.30
2022-12-06T02:25:24.227Z,4.22
2022-12-06T02:28:41.860Z,4.28
2022-12-06T02:31:27.271Z,4.28
2022-12-06T02:34:18.730Z,4.33
2022-12-06T02:36:56.920Z,4.22
2022-12-06T02:39:43.091Z,4.23
2022-12-06T02:42:17.437Z,4.22
2022-12-06T02:44:48.126Z,4.24
2022-12-06T02:47:17.810Z,4.25
2022-12-06T02:49:49.595Z,4.25
2022-12-06T02:52:20.419Z,4.23
2022-12-06T02:54:48.601Z,4.19
2022-12-06T02:57:15.337Z,4.16
2022-12-06T02:59:53.905Z,4.20
2022-12-06T03:02:22.063Z,4.26
2022-12-06T03:05:14.469Z,4.16
2022-12-06T03:07:46.396Z,4.18
2022-12-06T03:10:25.249Z,4.15
2022-12-06T03:13:07.038Z,4.20
2022-12-06T03:15:46.781Z,4.14
2022-12-06T03:18:42.894Z,4.04
2022-12-06T03:21:32.968Z,4.09
2022-12-06T03:23:59.948Z,3.96
2022-12-06T03:26:31.183Z,3.94
2022-12-06T03:29:01.664Z,3.97
2022-12-06T03:31:32.508Z,3.89
2022-12-06T03:34:03.862Z,3.94
2022-12-06T03:36:32.528Z,3.94
2022-12-06T03:39:03.986Z,3.92
2022-12-06T03:41:44.146Z,3.87
2022-12-06T03:44:10.884Z,3.87
2022-12-06T03:46:41.588Z,3.87
2022-12-06T03:49:16.235Z,3.88
2022-12-06T03:51:44.596Z,3.89
2022-12-06T03:54:12.050Z,3.88
2022-12-06T03:56:39.582Z,3.92
2022-12-06T03:59:07.974Z,3.89
2022-12-06T04:01:35.480Z,3.83
2022-12-06T04:04:02.192Z,3.85
2022-12-06T04:06:28.882Z,3.78
2022-12-06T04:09:15.713Z,3.77
2022-12-06T04:11:42.256Z,3.85
2022-12-06T04:14:08.848Z,3.81
2022-12-06T04:16:53.854Z,3.84
2022-12-06T04:19:20.501Z,3.83
2022-12-06T04:22:05.683Z,3.80
2022-12-06T04:24:32.417Z,3.76
2022-12-06T04:27:18.976Z,3.71
2022-12-06T04:30:03.895Z,3.74
2022-12-06T04:32:48.992Z,3.74
2022-12-06T04:35:34.538Z,3.75
2022-12-06T04:38:20.017Z,3.69
2022-12-06T04:40:47.867Z,3.71
2022-12-06T04:43:33.243Z,3.69
2022-12-06T04:45:59.840Z,3.78
2022-12-06T04:48:26.527Z,3.87
2022-12-06T04:50:53.076Z,3.93
2022-12-06T04:53:19.641Z,3.91
2022-12-06T04:55:47.779Z,3.97
2022-12-06T04:58:15.593Z,3.92
2022-12-06T05:00:43.696Z,3.96
2022-12-06T05:03:14.941Z,3.95
2022-12-06T05:05:42.557Z,4.03
2022-12-06T05:08:12.543Z,3.90
2022-12-06T05:10:39.809Z,3.97
2022-12-06T05:13:06.484Z,3.96
2022-12-06T05:15:33.329Z,3.80
2022-12-06T05:18:01.030Z,3.92
2022-12-06T05:20:27.657Z,3.93
2022-12-06T05:22:54.202Z,3.94
2022-12-06T05:25:20.780Z,3.87
2022-12-06T05:27:47.621Z,3.90
2022-12-06T05:30:14.580Z,4.00
2022-12-06T05:32:41.798Z,3.95
2022-12-06T05:35:11.143Z,4.04
2022-12-06T05:37:37.724Z,4.08
2022-12-06T05:40:04.896Z,4.06
2022-12-06T05:42:31.488Z,3.90
2022-12-06T05:44:58.087Z,3.87
2022-12-06T05:47:27.087Z,3.87
2022-12-06T05:49:53.691Z,3.93
2022-12-06T05:52:20.445Z,4.02
2022-12-06T05:54:47.034Z,3.97
2022-12-06T05:57:13.607Z,3.98
2022-12-06T05:59:40.155Z,3.98
2022-12-06T06:02:07.702Z,4.07
2022-12-06T06:04:34.481Z,4.08
2022-12-06T06:07:01.304Z,4.02
2022-12-06T06:09:30.240Z,4.09
2022-12-06T06:11:56.869Z,4.15
2022-12-06T06:14:23.502Z,4.07
2022-12-06T06:16:50.431Z,3.87
2022-12-06T06:19:17.217Z,3.93
2022-12-06T06:21:43.788Z,3.87
2022-12-06T06:24:10.356Z,4.05
2022-12-06T06:26:36.904Z,4.16
2022-12-06T06:29:03.690Z,4.19
2022-12-06T06:31:30.254Z,4.11
2022-12-06T06:33:56.928Z,4.14
2022-12-06T06:36:23.473Z,4.20
2022-12-06T06:38:49.989Z,4.10
2022-12-06T06:41:16.899Z,4.08
2022-12-06T06:43:43.469Z,3.94
2022-12-06T06:46:10.159Z,4.10
2022-12-06T06:48:39.205Z,4.15
2022-12-06T06:51:14.801Z,4.14
2022-12-06T06:53:41.669Z,4.13
2022-12-06T06:56:08.772Z,4.22
2022-12-06T06:58:35.369Z,4.14
2022-12-06T07:01:03.990Z,4.09
2022-12-06T07:03:30.627Z,4.15
2022-12-06T07:06:00.943Z,4.05
2022-12-06T07:08:30.228Z,4.20
2022-12-06T07:10:57.636Z,4.26
2022-12-06T07:13:26.139Z,4.22
2022-12-06T07:15:53.132Z,3.96
2022-12-06T07:18:20.590Z,4.00
2022-12-06T07:20:48.577Z,4.13
2022-12-06T07:23:15.842Z,4.19
2022-12-06T07:25:42.476Z,4.24
2022-12-06T07:28:09.082Z,4.08
2022-12-06T07:30:35.714Z,4.23
2022-12-06T07:33:02.481Z,4.26
2022-12-06T07:35:42.359Z,4.23
2022-12-06T07:38:15.599Z,4.25
2022-12-06T07:41:03.575Z,4.22
2022-12-06T07:43:47.230Z,4.16
2022-12-06T07:46:14.076Z,3.94
2022-12-06T07:48:40.714Z,4.10
2022-12-06T07:51:07.783Z,4.03
2022-12-06T07:53:34.414Z,4.22
2022-12-06T07:56:06.869Z,4.23
2022-12-06T07:58:33.487Z,4.20
2022-12-06T08:01:00.279Z,4.16
2022-12-06T08:03:27.028Z,3.99
2022-12-06T08:05:55.463Z,4.20
2022-12-06T08:08:28.020Z,4.21
2022-12-06T08:10:55.239Z,4.29
2022-12-06T08:13:21.776Z,4.26
2022-12-06T08:15:48.354Z,4.50
2022-12-06T08:18:14.905Z,4.65
2022-12-06T08:20:41.480Z,4.73
2022-12-06T08:23:08.487Z,4.91
2022-12-06T08:25:35.307Z,5.10
2022-12-06T08:28:02.031Z,5.16
2022-12-06T08:30:28.810Z,5.43
2022-12-06T08:32:55.845Z,5.29
2022-12-06T08:35:22.555Z,5.41
2022-12-06T08:37:49.155Z,5.26
2022-12-06T08:40:15.870Z,5.09
2022-12-06T08:42:43.487Z,5.26
2022-12-06T08:45:10.236Z,5.48
2022-12-06T08:47:36.854Z,5.58
2022-12-06T08:50:04.326Z,6.10
2022-12-06T08:52:30.878Z,6.26
2022-12-06T08:54:57.423Z,6.42
2022-12-06T08:57:24.020Z,6.42
2022-12-06T08:59:50.610Z,5.91
2022-12-06T09:02:17.230Z,5.73
2022-12-06T09:04:43.882Z,6.23
2022-12-06T09:07:12.070Z,6.35
2022-12-06T09:09:38.962Z,6.85
2022-12-06T09:12:05.706Z,6.68
2022-12-06T09:14:32.296Z,7.11
2022-12-06T09:16:58.834Z,6.81
2022-12-06T09:19:25.474Z,6.66
2022-12-06T09:21:52.045Z,7.05
2022-12-06T09:24:19.508Z,7.39
2022-12-06T09:26:46.226Z,6.98
2022-12-06T09:29:13.411Z,7.33
2022-12-06T09:31:40.977Z,7.31
2022-12-06T09:34:08.955Z,6.78
2022-12-06T09:36:42.849Z,6.34
2022-12-06T09:39:20.149Z,7.12
2022-12-06T09:41:58.427Z,7.76
2022-12-06T09:44:40.068Z,8.53
2022-12-06T09:47:45.207Z,7.91
2022-12-06T09:50:17.664Z,7.94
2022-12-06T09:53:12.280Z,8.10
2022-12-06T09:56:06.281Z,8.15
2022-12-06T09:59:17.419Z,7.29
2022-12-06T10:02:11.911Z,6.96
2022-12-06T10:05:04.413Z,7.06
2022-12-06T10:08:01.433Z,7.18
2022-12-06T10:10:53.121Z,7.38
2022-12-06T10:13:28.237Z,7.01
2022-12-06T10:16:23.211Z,6.53
2022-12-06T10:19:43.097Z,6.61
2022-12-06T10:22:47.136Z,6.18
2022-12-06T10:25:31.610Z,6.27
2022-12-06T10:27:58.072Z,7.21
2022-12-06T10:30:24.732Z,7.99
2022-12-06T10:33:12.887Z,10.11
2022-12-06T10:36:03.873Z,9.80
2022-12-06T10:38:47.145Z,9.56
2022-12-06T10:41:22.599Z,11.80
2022-12-06T10:43:52.128Z,10.81
2022-12-06T10:46:55.925Z,10.47
2022-12-06T10:49:33.512Z,7.96
2022-12-06T10:52:30.672Z,7.70
2022-12-06T10:55:09.521Z,8.79
2022-12-06T10:58:14.412Z,10.76
2022-12-06T11:01:19.421Z,10.44
2022-12-06T11:03:58.453Z,11.44
2022-12-06T11:06:39.559Z,11.15
2022-12-06T11:09:19.583Z,11.23
2022-12-06T11:11:48.988Z,10.97
2022-12-06T11:14:21.821Z,11.96
2022-12-06T11:17:00.846Z,11.11
2022-12-06T11:19:31.371Z,11.41
2022-12-06T11:22:39.563Z,12.43
2022-12-06T11:25:14.668Z,13.63
2022-12-06T11:27:49.308Z,10.94
2022-12-06T11:30:20.586Z,10.82
2022-12-06T11:32:51.194Z,11.21
2022-12-06T11:35:25.150Z,10.26
2022-12-06T11:38:02.214Z,9.64
2022-12-06T11:40:36.624Z,10.42
2022-12-06T11:43:07.781Z,9.86
2022-12-06T11:45:38.250Z,10.23
2022-12-06T11:48:29.055Z,11.35
2022-12-06T11:50:55.604Z,10.87
2022-12-06T11:53:31.049Z,10.43
2022-12-06T11:56:03.497Z,10.64
2022-12-06T11:58:40.250Z,11.34
2022-12-06T12:01:14.135Z,10.54
2022-12-06T12:03:43.883Z,10.05
2022-12-06T12:06:27.312Z,9.17
2022-12-06T12:08:58.417Z,8.00
2022-12-06T12:11:31.879Z,7.46
2022-12-06T12:14:05.380Z,7.56
2022-12-06T12:16:37.676Z,6.99
2022-12-06T12:19:31.253Z,6.88
2022-12-06T12:22:00.090Z,7.21
2022-12-06T12:25:10.914Z,6.94
2022-12-06T12:27:34.693Z,6.73
2022-12-06T12:30:19.541Z,6.55
2022-12-06T12:32:47.563Z,6.33
2022-12-06T12:35:28.085Z,6.64
2022-12-06T12:37:57.034Z,6.74
2022-12-06T12:40:26.661Z,6.95
2022-12-06T12:42:59.526Z,6.75
2022-12-06T12:45:27.760Z,6.79
2022-12-06T12:47:58.646Z,6.82
2022-12-06T12:50:26.102Z,6.72
2022-12-06T12:52:52.979Z,6.43
2022-12-06T12:55:21.206Z,6.46
2022-12-06T12:57:50.941Z,6.69
2022-12-06T13:00:23.356Z,6.92
2022-12-06T13:03:07.831Z,7.07
2022-12-06T13:05:46.828Z,7.01
2022-12-06T13:08:13.819Z,6.71
2022-12-06T13:10:44.652Z,6.65
2022-12-06T13:13:21.996Z,6.57
2022-12-06T13:15:53.972Z,6.53
2022-12-06T13:18:28.400Z,6.12
2022-12-06T13:20:57.835Z,6.33
2022-12-06T13:23:34.015Z,6.22
2022-12-06T13:26:22.491Z,6.50
2022-12-06T13:28:54.932Z,6.44
2022-12-06T13:31:25.393Z,6.73
2022-12-06T13:33:53.648Z,6.58
2022-12-06T13:36:21.740Z,6.23
2022-12-06T13:38:48.416Z,6.51
2022-12-06T13:41:54.710Z,6.41
2022-12-06T13:44:41.861Z,6.46
2022-12-06T13:47:26.509Z,6.06
2022-12-06T13:50:23.278Z,6.03
2022-12-06T13:52:49.733Z,5.87
2022-12-06T13:55:25.446Z,5.84
2022-12-06T13:58:17.166Z,5.71
2022-12-06T14:00:43.633Z,5.77
2022-12-06T14:03:13.127Z,5.72
2022-12-06T14:06:06.004Z,5.67
2022-12-06T14:08:43.458Z,5.66
2022-12-06T14:11:13.725Z,5.57
2022-12-06T14:13:42.195Z,5.36
2022-12-06T14:16:12.386Z,5.13
2022-12-06T14:18:42.111Z,5.09
2022-12-06T14:21:22.566Z,4.92
2022-12-06T14:23:49.229Z,4.84
2022-12-06T14:26:22.879Z,4.78
2022-12-06T14:28:51.809Z,4.45
2022-12-06T14:31:28.475Z,4.28
2022-12-06T14:33:56.480Z,4.15
2022-12-06T14:36:30.683Z,4.14
2022-12-06T14:39:05.748Z,3.81
2022-12-06T14:41:56.607Z,3.59
2022-12-06T14:44:31.678Z,3.65
2022-12-06T14:46:59.232Z,3.69
2022-12-06T14:49:46.327Z,3.61
2022-12-06T14:52:42.351Z,3.72
2022-12-06T14:55:11.572Z,3.85
2022-12-06T14:57:45.638Z,3.81
2022-12-06T15:00:27.045Z,3.48
2022-12-06T15:03:11.551Z,3.35
2022-12-06T15:05:57.241Z,3.19
2022-12-06T15:08:33.275Z,3.09
2022-12-06T15:11:06.811Z,3.27
2022-12-06T15:13:33.525Z,3.12
2022-12-06T15:16:04.324Z,2.92
2022-12-06T15:18:35.173Z,2.56
2022-12-06T15:21:01.960Z,2.35
2022-12-06T15:23:36.640Z,2.12
2022-12-06T15:26:05.370Z,1.99
2022-12-06T15:28:31.977Z,1.90
2022-12-06T15:30:58.604Z,2.14
2022-12-06T15:33:27.275Z,2.08
2022-12-06T15:35:54.396Z,2.14
2022-12-06T15:38:21.624Z,2.28
2022-12-06T15:40:50.834Z,2.17
2022-12-06T15:43:31.607Z,2.04
2022-12-06T15:46:01.195Z,1.63
2022-12-06T15:48:34.649Z,1.31
2022-12-06T15:51:01.647Z,1.05
2022-12-06T15:53:29.289Z,0.93
2022-12-06T15:55:56.251Z,0.88
2022-12-06T15:58:22.900Z,0.75
2022-12-06T16:00:50.483Z,0.57
2022-12-06T16:03:17.218Z,0.51
2022-12-06T16:05:43.901Z,0.59
2022-12-06T16:08:10.562Z,0.72
2022-12-06T16:11:10.329Z,0.82
2022-12-06T16:13:24.064Z,1.21
2022-12-06T16:15:52.486Z,1.32
2022-12-06T16:18:20.317Z,0.94
2022-12-06T16:20:47.596Z,0.50
2022-12-06T16:24:11.369Z,0.68
2022-12-06T16:26:25.451Z,0.46
2022-12-06T16:28:52.013Z,0.19
2022-12-06T16:31:18.712Z,0.23
2022-12-06T16:33:45.301Z,0.04
2022-12-06T16:36:14.090Z,-0.16
2022-12-06T16:38:40.779Z,0.20
2022-12-06T16:41:10.883Z,0.63
2022-12-06T16:43:37.427Z,0.52
2022-12-06T16:46:34.296Z,0.99
2022-12-06T16:49:16.101Z,1.19
2022-12-06T16:51:49.147Z,1.10
2022-12-06T16:54:17.399Z,1.00
2022-12-06T16:56:44.692Z,1.06
2022-12-06T16:59:16.275Z,0.99
2022-12-06T17:01:50.742Z,1.29
2022-12-06T17:04:17.720Z,1.08
2022-12-06T17:06:44.957Z,1.19
2022-12-06T17:09:12.062Z,0.89
2022-12-06T17:11:57.999Z,0.82
2022-12-06T17:14:28.151Z,0.76
2022-12-06T17:16:56.006Z,0.57
2022-12-06T17:19:28.088Z,0.42
2022-12-06T17:21:55.235Z,0.26
2022-12-06T17:24:23.042Z,0.08
2022-12-06T17:26:49.831Z,-0.08
2022-12-06T17:29:17.508Z,-0.16
2022-12-06T17:31:44.409Z,-0.24
2022-12-06T17:34:14.791Z,-0.41
2022-12-06T17:36:44.784Z,-0.44
2022-12-06T17:39:15.036Z,-0.49
2022-12-06T17:42:00.266Z,-0.39
2022-12-06T17:44:26.954Z,-0.43
2022-12-06T17:46:54.076Z,-0.61
2022-12-06T17:49:23.390Z,-0.52
2022-12-06T17:51:50.957Z,-0.47
2022-12-06T17:54:19.389Z,-0.47
2022-12-06T17:56:51.591Z,-0.57
2022-12-06T17:59:21.068Z,-0.43
2022-12-06T18:02:14.148Z,-0.47
2022-12-06T18:04:35.266Z,-0.66
2022-12-06T18:07:01.868Z,-0.64
2022-12-06T18:09:28.466Z,-0.76
2022-12-06T18:11:57.304Z,-0.95
2022-12-06T18:14:23.875Z,-1.02
2022-12-06T18:16:50.736Z,-1.07
2022-12-06T18:19:20.183Z,-1.15
2022-12-06T18:21:52.127Z,-1.36
2022-12-06T18:24:22.010Z,-1.41
2022-12-06T18:26:49.967Z,-1.43
2022-12-06T18:29:20.008Z,-1.59
2022-12-06T18:31:47.338Z,-1.50
2022-12-06T18:34:14.301Z,-1.55
2022-12-06T18:36:41.716Z,-1.53
2022-12-06T18:39:14.806Z,-1.59
2022-12-06T18:41:41.843Z,-1.64
2022-12-06T18:44:10.227Z,-1.70
2022-12-06T18:46:38.930Z,-1.46
2022-12-06T18:49:05.999Z,-1.24
2022-12-06T18:51:34.933Z,-1.07
2022-12-06T18:54:04.461Z,-1.02
2022-12-06T18:56:35.719Z,-0.91
2022-12-06T18:59:04.393Z,-1.23
2022-12-06T19:01:33.421Z,-1.46
2022-12-06T19:04:03.044Z,-1.30
2022-12-06T19:06:37.996Z,-1.27
2022-12-06T19:09:08.271Z,-1.31
2022-12-06T19:11:45.840Z,-1.27
2022-12-06T19:14:14.640Z,-1.56
2022-12-06T19:16:44.155Z,-1.65
2022-12-06T19:19:16.625Z,-1.76
2022-12-06T19:21:47.816Z,-1.63
2022-12-06T19:24:16.928Z,-2.02
2022-12-06T19:26:44.305Z,-2.17
2022-12-06T19:29:11.055Z,-2.12
2022-12-06T19:31:37.752Z,-2.18
2022-12-06T19:34:04.536Z,-2.19
2022-12-06T19:36:31.833Z,-2.36
2022-12-06T19:39:01.294Z,-2.22
2022-12-06T19:41:27.891Z,-2.25
2022-12-06T19:44:13.293Z,-2.25
2022-12-06T19:46:42.772Z,-2.16
2022-12-06T19:49:10.450Z,-1.76
2022-12-06T19:51:38.733Z,-1.92
2022-12-06T19:54:07.076Z,-2.05
2022-12-06T19:56:34.452Z,-2.23
2022-12-06T19:59:04.354Z,-2.23
2022-12-06T20:01:31.356Z,-2.23
2022-12-06T20:03:58.019Z,-2.36
2022-12-06T20:06:26.837Z,-2.44
2022-12-06T20:08:56.214Z,-2.53
2022-12-06T20:11:44.259Z,-2.43
2022-12-06T20:14:14.170Z,-2.34
2022-12-06T20:16:42.472Z,-2.42
2022-12-06T20:19:10.615Z,-2.31
2022-12-06T20:21:37.425Z,-2.36
2022-12-06T20:24:07.284Z,-2.43
2022-12-06T20:26:34.091Z,-2.51
2022-12-06T20:29:01.077Z,-2.45
2022-12-06T20:31:33.054Z,-2.20
2022-12-06T20:34:02.161Z,-2.20
2022-12-06T20:36:31.845Z,-2.28
2022-12-06T20:38:59.829Z,-1.87
2022-12-06T20:41:33.099Z,-2.14
2022-12-06T20:44:04.432Z,-2.12
2022-12-06T20:46:31.865Z,-2.06
2022-12-06T20:49:04.963Z,-1.81
2022-12-06T20:51:35.015Z,-1.59
2022-12-06T20:54:04.301Z,-1.79
2022-12-06T20:56:34.578Z,-1.91
2022-12-06T20:59:02.551Z,-1.92
2022-12-06T21:01:34.051Z,-1.68
2022-12-06T21:04:00.828Z,-1.88
2022-12-06T21:06:29.878Z,-1.74
2022-12-06T21:08:56.569Z,-1.69
2022-12-06T21:11:26.451Z,-2.17
2022-12-06T21:13:55.276Z,-2.41
2022-12-06T21:16:28.062Z,-2.42
2022-12-06T21:19:00.842Z,-2.45
2022-12-06T21:21:34.309Z,-2.79
2022-12-06T21:24:02.751Z,-2.64
2022-12-06T21:26:30.098Z,-2.82
2022-12-06T21:28:57.433Z,-2.77
2022-12-06T21:31:35.139Z,-2.81
2022-12-06T21:34:02.516Z,-2.94
2022-12-06T21:36:31.667Z,-2.97
2022-12-06T21:38:58.694Z,-2.94
2022-12-06T21:41:25.669Z,-2.79
2022-12-06T21:43:52.334Z,-2.99
2022-12-06T21:46:21.265Z,-2.99
2022-12-06T21:48:58.020Z,-2.90
2022-12-06T21:51:30.565Z,-2.99
2022-12-06T21:54:00.451Z,-2.73
2022-12-06T21:56:29.510Z,-2.89
2022-12-06T21:58:56.522Z,-2.77
2022-12-06T22:01:27.861Z,-2.99
2022-12-06T22:03:56.240Z,-2.97
2022-12-06T22:06:25.196Z,-3.01
2022-12-06T22:09:04.419Z,-2.75
2022-12-06T22:11:31.673Z,-2.92
2022-12-06T22:14:02.459Z,-2.74
2022-12-06T22:16:29.537Z,-2.70
2022-12-06T22:19:01.606Z,-2.77
2022-12-06T22:21:31.259Z,-2.57
2022-12-06T22:23:58.581Z,-2.38
2022-12-06T22:26:28.342Z,-2.63
2022-12-06T22:28:55.415Z,-2.73
2022-12-06T22:31:24.718Z,-2.69
2022-12-06T22:33:52.237Z,-2.83
2022-12-06T22:36:20.961Z,-2.93
2022-12-06T22:38:56.251Z,-3.00
2022-12-06T22:41:23.801Z,-3.00
2022-12-06T22:43:52.451Z,-3.04
2022-12-06T22:46:19.347Z,-2.91
2022-12-06T22:48:46.557Z,-3.01
2022-12-06T22:51:19.351Z,-2.86
2022-12-06T22:53:48.380Z,-2.56
2022-12-06T22:56:15.639Z,-2.57
2022-12-06T22:58:42.423Z,-2.32
2022-12-06T23:01:16.699Z,-2.23
2022-12-06T23:03:45.260Z,-2.19
2022-12-06T23:06:12.938Z,-2.05
2022-12-06T23:08:39.612Z,-1.88
2022-12-06T23:11:10.157Z,-1.66
2022-12-06T23:13:36.902Z,-1.42
2022-12-06T23:16:07.511Z,-1.33
2022-12-06T23:18:34.911Z,-1.20
2022-12-06T23:21:22.228Z,-1.13
2022-12-06T23:23:52.089Z,-1.03
2022-12-06T23:26:21.746Z,-0.97
2022-12-06T23:28:48.809Z,-0.92
2022-12-06T23:31:27.804Z,-0.86
2022-12-06T23:34:03.066Z,-0.77
2022-12-06T23:36:31.166Z,-0.78
2022-12-06T23:38:57.890Z,-0.81
2022-12-06T23:41:27.196Z,-0.72
2022-12-06T23:43:55.879Z,-0.62
2022-12-06T23:46:28.065Z,-0.51
2022-12-06T23:48:54.967Z,-0.41
2022-12-06T23:51:24.376Z,-0.43
2022-12-06T23:53:59.083Z,-0.43
2022-12-06T23:56:34.190Z,-0.78
2022-12-06T23:59:02.180Z,-1.10
